KPNS/PNS METAR and TAF weather

Enter ICAO airport designator
Station Type Date Time Source
KPNS METAR 2020/03/28 15:06 UTC NOAA

KPNS 281506Z 19014G23KT 7SM SCT017 27/22 A3001 RMK AO2 T02670217


Station Type Date Time Source
KPNS Decoded METAR 2020/03/28 15:06 UTC NOAA

PENSACOLA REGIONAL AIRPORT, FL, United States (KPNS) 30-29N 087-11W 38M
Mar 28, 2020 - 11:06 AM EDT / 2020.03.28 1506 UTC
Wind: from the S (190 degrees) at 16 MPH (14 KT) gusting to 26 MPH (23 KT):0
Visibility: 7 mile(s):0
Sky conditions: partly cloudy
Temperature: 80.1 F (26.7 C)
Dew Point: 71.1 F (21.7 C)
Relative Humidity: 74%
Pressure (altimeter): 30.01 in. Hg (1016 hPa)
ob: KPNS 281506Z 19014G23KT 7SM SCT017 27/22 A3001 RMK AO2 T02670217
cycle: 15

Station Type Date Time Source
KPNS TAF 2020/03/28 12:33 UTC NOAA

TAF KPNS 281131Z 2812/2912 19009KT P6SM SCT015
FM281500 17012KT P6SM SCT025 SCT250
FM290100 18009KT P6SM SCT030 BKN120
FM290800 19006KT 5SM BR BKN015

Example: see airport list